Time;durP1;ratioP1;P1;durP2;ratioP2;P2;SDS_P1;SDS_P2;PMS_P1;PMS_P2;Temp;Humidity;BMP_temperature;BMP_pressure;BME280_temperature;BME280_humidity;BME280_pressure;Samples;Min_cycle;Max_cycle;Signal;HPM_P1;HPM_P2
2021/12/29 00:01:00;;;;;;;25.40;15.90;;;2.20;99.90;;;;;;8393827;28;20185;-63
2021/12/29 00:05:00;;;;;;;29.80;17.27;;;2.20;99.90;;;;;;8385216;28;20209;-64
2021/12/29 00:09:02;;;;;;;29.07;16.50;;;2.20;99.90;;;;;;8402742;28;20191;-63
2021/12/29 00:13:04;;;;;;;28.37;16.50;;;2.20;99.90;;;;;;8387762;28;20177;-63
2021/12/29 00:17:05;;;;;;;32.33;18.20;;;2.20;99.90;;;;;;8392261;28;20173;-63
2021/12/29 00:21:07;;;;;;;29.17;16.43;;;2.20;99.90;;;;;;8398090;28;20193;-63
2021/12/29 00:25:09;;;;;;;26.97;14.87;;;2.10;99.90;;;;;;8387041;28;20224;-63
2021/12/29 00:29:10;;;;;;;26.60;15.87;;;2.10;99.90;;;;;;8391386;28;20204;-64
2021/12/29 00:33:11;;;;;;;25.97;15.50;;;2.00;99.90;;;;;;8388455;28;20208;-63
2021/12/29 00:37:11;;;;;;;22.57;13.50;;;1.90;99.90;;;;;;8420167;28;20181;-63
2021/12/29 00:41:13;;;;;;;22.00;14.10;;;1.90;99.90;;;;;;8395516;28;20189;-63
2021/12/29 00:45:14;;;;;;;22.70;14.37;;;2.00;99.90;;;;;;8393328;28;20234;-63
2021/12/29 00:49:15;;;;;;;21.07;13.23;;;2.10;99.90;;;;;;8386313;28;20193;-63
2021/12/29 00:53:16;;;;;;;24.80;14.27;;;2.10;99.90;;;;;;8387254;28;20215;-63
2021/12/29 00:57:17;;;;;;;21.30;12.77;;;2.10;99.90;;;;;;8388931;28;20196;-63
2021/12/29 01:01:17;;;;;;;21.47;13.30;;;2.10;99.90;;;;;;8395176;28;20184;-63
2021/12/29 01:05:19;;;;;;;24.97;13.23;;;2.00;99.90;;;;;;8381664;28;20215;-63
2021/12/29 01:09:20;;;;;;;20.60;12.63;;;1.90;99.90;;;;;;8389815;28;20248;-63
2021/12/29 01:13:29;;;;;;;19.83;12.53;;;1.70;99.90;;;;;;8380232;28;20235;-64
2021/12/29 01:17:31;;;;;;;18.93;12.47;;;1.50;99.90;;;;;;8382909;28;20181;-63
2021/12/29 01:21:33;;;;;;;17.70;10.03;;;1.30;99.90;;;;;;8379827;28;20274;-64
2021/12/29 01:25:34;;;;;;;17.37;11.10;;;1.10;99.90;;;;;;8386030;28;20205;-63
2021/12/29 01:29:35;;;;;;;17.23;10.00;;;0.90;99.90;;;;;;8390588;28;20664;-64
2021/12/29 01:33:36;;;;;;;19.03;10.83;;;0.80;99.90;;;;;;8380485;28;20181;-65
2021/12/29 01:37:37;;;;;;;17.80;11.33;;;0.70;99.90;;;;;;8395205;28;20184;-64
2021/12/29 01:41:38;;;;;;;23.70;12.23;;;0.60;99.90;;;;;;8392956;28;20185;-64
2021/12/29 01:45:39;;;;;;;17.07;10.93;;;0.60;99.90;;;;;;8389630;28;20220;-64
2021/12/29 01:49:41;;;;;;;16.87;10.67;;;0.70;99.90;;;;;;8366021;28;20272;-65
2021/12/29 01:53:48;;;;;;;19.70;11.13;;;0.80;99.90;;;;;;8378753;28;20185;-64
2021/12/29 01:57:49;;;;;;;18.23;10.93;;;0.90;99.90;;;;;;8369718;28;20182;-64
2021/12/29 02:01:50;;;;;;;22.20;12.70;;;1.00;99.90;;;;;;8373028;28;20188;-64
2021/12/29 02:05:52;;;;;;;22.73;13.37;;;1.00;99.90;;;;;;8381296;28;20220;-64
2021/12/29 02:09:54;;;;;;;41.50;20.77;;;1.00;99.90;;;;;;8392878;28;20201;-64
2021/12/29 02:13:57;;;;;;;43.70;19.97;;;1.00;99.90;;;;;;8399234;27;20197;-64
2021/12/29 02:17:58;;;;;;;65.33;28.43;;;1.00;99.90;;;;;;8370700;28;20227;-64
2021/12/29 02:22:13;;;;;;;163.00;58.40;;;0.90;99.90;;;;;;8371742;28;20201;-64
2021/12/29 02:26:15;;;;;;;124.63;47.57;;;0.80;99.90;;;;;;8374254;28;20436;-64
2021/12/29 02:30:18;;;;;;;58.50;27.73;;;0.70;99.90;;;;;;8392309;28;20192;-64
2021/12/29 02:34:18;;;;;;;41.27;19.90;;;0.60;99.90;;;;;;8399695;28;20257;-64
2021/12/29 02:38:27;;;;;;;36.07;18.17;;;0.50;99.90;;;;;;8371879;28;20194;-63
2021/12/29 02:42:30;;;;;;;30.13;16.23;;;0.50;99.90;;;;;;8368881;28;20694;-64
2021/12/29 02:46:35;;;;;;;38.53;18.23;;;0.50;99.90;;;;;;8373690;28;20205;-63
2021/12/29 02:50:36;;;;;;;90.17;40.00;;;0.50;99.90;;;;;;8391063;28;20316;-63
2021/12/29 02:54:37;;;;;;;58.10;28.03;;;0.60;99.90;;;;;;8372885;28;20232;-64
2021/12/29 02:58:38;;;;;;;54.27;25.17;;;0.70;99.90;;;;;;8401154;28;20189;-63
2021/12/29 03:02:39;;;;;;;55.63;22.90;;;0.80;99.90;;;;;;8376864;28;20280;-63
2021/12/29 03:06:40;;;;;;;39.60;21.13;;;0.80;99.90;;;;;;8391404;28;20204;-64
2021/12/29 03:10:42;;;;;;;36.73;18.80;;;0.80;99.90;;;;;;8383046;28;20215;-63
2021/12/29 03:14:54;;;;;;;32.07;15.37;;;0.80;99.90;;;;;;8410303;28;22391;-63
2021/12/29 03:18:55;;;;;;;25.10;13.30;;;0.80;99.90;;;;;;8386116;28;20177;-64
2021/12/29 03:22:57;;;;;;;21.33;13.20;;;0.90;99.90;;;;;;8388500;28;20196;-63
2021/12/29 03:26:57;;;;;;;21.07;11.97;;;0.90;99.90;;;;;;8381303;28;20213;-63
2021/12/29 03:30:58;;;;;;;19.00;9.93;;;1.00;99.90;;;;;;8375408;28;20197;-64
2021/12/29 03:34:59;;;;;;;19.00;11.30;;;1.00;99.90;;;;;;8410148;28;20197;-64
2021/12/29 03:39:00;;;;;;;18.93;10.87;;;1.00;99.90;;;;;;8369475;28;20575;-63
2021/12/29 03:43:05;;;;;;;19.77;11.47;;;1.00;99.90;;;;;;8377729;28;20186;-64
2021/12/29 03:47:06;;;;;;;17.47;9.73;;;1.10;99.90;;;;;;8383310;28;20215;-63
2021/12/29 03:51:07;;;;;;;16.73;8.83;;;1.30;99.90;;;;;;8389243;28;20213;-64
2021/12/29 03:55:09;;;;;;;13.33;7.57;;;1.50;99.90;;;;;;8378383;28;20189;-63
2021/12/29 03:59:10;;;;;;;12.27;6.63;;;1.70;99.90;;;;;;8381550;28;20296;-63
2021/12/29 04:03:10;;;;;;;13.83;7.10;;;1.90;99.90;;;;;;8375166;28;20259;-63
2021/12/29 04:07:11;;;;;;;11.23;6.67;;;2.00;99.90;;;;;;8410894;28;20189;-64
2021/12/29 04:11:13;;;;;;;13.30;7.47;;;2.00;99.90;;;;;;8381890;28;20212;-64
2021/12/29 04:15:15;;;;;;;24.17;13.70;;;2.10;99.90;;;;;;8383441;28;20279;-64
2021/12/29 04:19:29;;;;;;;32.37;18.53;;;2.10;99.90;;;;;;8380720;28;20220;-64
2021/12/29 04:23:35;;;;;;;29.30;18.73;;;2.10;99.90;;;;;;8377722;28;20227;-64
2021/12/29 04:27:36;;;;;;;29.00;18.23;;;2.10;99.90;;;;;;8385802;28;20198;-63
2021/12/29 04:31:37;;;;;;;38.10;20.70;;;2.10;99.90;;;;;;8384127;28;20189;-63
2021/12/29 04:35:38;;;;;;;33.93;16.17;;;2.00;99.90;;;;;;8382530;28;20202;-63
2021/12/29 04:39:38;;;;;;;26.17;11.70;;;2.00;99.90;;;;;;8383909;28;20203;-64
2021/12/29 04:43:39;;;;;;;13.93;8.50;;;2.10;99.90;;;;;;8423051;27;20207;-64
2021/12/29 04:47:43;;;;;;;9.93;5.47;;;2.20;99.90;;;;;;8388830;28;20509;-64
2021/12/29 04:51:48;;;;;;;11.83;7.37;;;2.30;99.90;;;;;;8378867;28;20286;-63
2021/12/29 04:55:50;;;;;;;18.10;13.03;;;2.30;99.90;;;;;;8374558;28;20190;-64
2021/12/29 04:59:50;;;;;;;11.40;7.20;;;2.20;99.90;;;;;;8420307;27;20248;-64
2021/12/29 05:03:53;;;;;;;15.13;6.57;;;2.20;99.90;;;;;;8399453;28;20266;-64
2021/12/29 05:12:13;;;;;;;11.10;6.80;;;2.40;99.90;;;;;;8376802;28;20246;-64
2021/12/29 05:16:14;;;;;;;12.63;7.10;;;2.50;99.90;;;;;;8377352;28;20189;-64
2021/12/29 05:20:15;;;;;;;10.13;5.97;;;2.60;99.90;;;;;;8386527;28;20739;-64
2021/12/29 05:24:15;;;;;;;8.97;5.77;;;2.70;99.90;;;;;;8385766;28;20220;-64
2021/12/29 05:28:17;;;;;;;12.90;7.90;;;2.80;99.90;;;;;;8388218;28;20185;-64
2021/12/29 05:32:18;;;;;;;12.40;8.53;;;2.90;99.90;;;;;;8383743;28;20539;-64
2021/12/29 05:36:19;;;;;;;12.10;5.97;;;3.00;99.90;;;;;;8382930;28;20192;-64
2021/12/29 05:40:20;;;;;;;10.50;5.63;;;3.10;99.90;;;;;;8386687;28;20197;-64
2021/12/29 05:44:21;;;;;;;11.83;6.10;;;3.20;99.90;;;;;;8383718;28;20223;-64
2021/12/29 05:48:21;;;;;;;9.13;6.40;;;3.20;99.90;;;;;;8372903;28;20180;-64
2021/12/29 05:52:23;;;;;;;11.97;6.03;;;3.30;99.90;;;;;;8371259;28;20256;-64
2021/12/29 05:56:23;;;;;;;9.57;5.53;;;3.30;99.90;;;;;;8367519;28;20195;-64
2021/12/29 06:00:27;;;;;;;9.00;6.60;;;3.40;99.90;;;;;;8387044;28;20196;-63
2021/12/29 06:04:28;;;;;;;15.90;9.73;;;3.50;99.90;;;;;;8401035;28;20204;-64
2021/12/29 06:08:29;;;;;;;12.37;7.23;;;3.50;99.90;;;;;;8383569;28;20208;-64
2021/12/29 06:12:29;;;;;;;10.83;7.00;;;3.50;99.90;;;;;;8372334;28;20250;-64
2021/12/29 06:16:30;;;;;;;12.20;5.97;;;3.60;99.90;;;;;;8385905;28;20271;-63
2021/12/29 06:20:31;;;;;;;11.07;6.47;;;3.60;99.90;;;;;;8379143;28;20188;-63
2021/12/29 06:24:32;;;;;;;12.07;6.23;;;3.70;99.90;;;;;;8377502;28;20236;-63
2021/12/29 06:28:33;;;;;;;13.33;6.43;;;3.70;99.90;;;;;;8377246;28;20181;-63
2021/12/29 06:32:34;;;;;;;11.57;6.47;;;3.80;99.90;;;;;;8373544;28;20286;-64
2021/12/29 06:36:35;;;;;;;11.93;8.57;;;3.80;99.90;;;;;;8370583;28;20189;-63
2021/12/29 06:40:36;;;;;;;15.33;8.73;;;3.80;99.90;;;;;;8366163;28;20217;-63
2021/12/29 06:44:38;;;;;;;12.23;6.57;;;3.90;99.90;;;;;;8371118;28;20275;-63
2021/12/29 06:48:39;;;;;;;13.57;7.07;;;3.90;99.90;;;;;;8368299;28;20181;-64
2021/12/29 06:52:39;;;;;;;12.23;6.80;;;3.90;99.90;;;;;;8367668;28;20185;-64
2021/12/29 06:56:40;;;;;;;10.17;6.93;;;3.80;99.90;;;;;;8397771;28;20318;-65
2021/12/29 07:00:41;;;;;;;14.67;6.77;;;3.80;99.90;;;;;;8367878;28;20192;-64
2021/12/29 07:04:43;;;;;;;10.07;7.13;;;3.80;99.90;;;;;;8362239;28;20255;-63
2021/12/29 07:08:44;;;;;;;11.57;6.63;;;3.80;99.90;;;;;;8365901;28;20185;-64
2021/12/29 07:12:44;;;;;;;11.03;6.43;;;3.90;99.90;;;;;;8384412;28;20201;-64
2021/12/29 07:16:47;;;;;;;14.23;9.53;;;4.00;99.90;;;;;;8407320;28;20184;-64
2021/12/29 07:20:48;;;;;;;14.30;8.20;;;4.00;99.90;;;;;;8378302;28;20200;-65
2021/12/29 07:24:49;;;;;;;11.90;7.27;;;4.10;99.90;;;;;;8404762;28;20208;-63
2021/12/29 07:28:51;;;;;;;11.37;7.07;;;4.10;99.90;;;;;;8405099;28;20189;-63
2021/12/29 07:32:52;;;;;;;11.90;8.47;;;4.10;99.90;;;;;;8384261;28;20212;-65
2021/12/29 07:36:53;;;;;;;12.97;8.43;;;4.20;99.90;;;;;;8382747;28;20199;-63
2021/12/29 07:40:54;;;;;;;17.63;8.40;;;4.20;99.90;;;;;;8375571;28;20184;-64
2021/12/29 07:44:54;;;;;;;12.57;7.50;;;4.20;99.90;;;;;;8376872;28;20213;-63
2021/12/29 07:48:55;;;;;;;13.47;10.40;;;4.20;99.90;;;;;;8393649;28;20311;-69
2021/12/29 07:52:56;;;;;;;12.70;9.13;;;4.40;99.90;;;;;;8378027;28;20566;-67
2021/12/29 07:56:57;;;;;;;19.73;11.40;;;4.80;99.90;;;;;;8407110;27;20247;-67
2021/12/29 08:00:58;;;;;;;12.70;7.87;;;5.00;99.90;;;;;;8378694;28;20205;-67
2021/12/29 08:04:58;;;;;;;12.83;7.07;;;4.90;99.90;;;;;;8388557;28;20209;-67
2021/12/29 08:08:59;;;;;;;11.43;8.07;;;4.80;99.90;;;;;;8379577;28;20191;-67
2021/12/29 08:13:01;;;;;;;14.80;7.20;;;4.70;99.90;;;;;;8376527;28;20214;-68
2021/12/29 08:17:02;;;;;;;11.03;7.40;;;4.60;99.90;;;;;;8380308;28;20194;-67
2021/12/29 08:21:03;;;;;;;11.53;7.47;;;4.60;99.90;;;;;;8383673;28;20208;-68
2021/12/29 08:25:06;;;;;;;10.90;8.30;;;4.70;99.90;;;;;;8381666;28;20233;-67
2021/12/29 08:29:07;;;;;;;12.47;9.23;;;4.70;99.90;;;;;;8419747;27;20331;-67
2021/12/29 08:33:08;;;;;;;10.73;7.10;;;4.80;99.90;;;;;;8403847;28;20185;-69
2021/12/29 08:37:09;;;;;;;10.90;6.97;;;5.00;99.90;;;;;;8388165;28;20185;-68
2021/12/29 08:41:13;;;;;;;12.53;8.07;;;5.00;99.90;;;;;;8380010;28;20185;-68
2021/12/29 08:45:15;;;;;;;14.43;8.97;;;5.00;99.90;;;;;;8413079;27;20218;-70
2021/12/29 08:49:16;;;;;;;22.03;10.93;;;5.00;99.90;;;;;;8385586;28;20320;-68
2021/12/29 08:53:17;;;;;;;11.53;6.77;;;5.20;99.90;;;;;;8382498;28;20193;-67
2021/12/29 08:57:18;;;;;;;13.30;6.90;;;5.30;99.90;;;;;;8368001;28;20200;-67
2021/12/29 09:01:20;;;;;;;11.90;7.30;;;5.40;99.90;;;;;;8380778;28;20196;-66
2021/12/29 09:05:21;;;;;;;12.73;8.57;;;5.50;99.90;;;;;;8388331;28;20273;-66
2021/12/29 09:09:22;;;;;;;17.40;10.67;;;5.40;99.90;;;;;;8385086;28;20217;-66
2021/12/29 09:13:23;;;;;;;17.07;8.10;;;5.40;99.90;;;;;;8389958;28;20248;-66
2021/12/29 09:17:24;;;;;;;20.60;11.97;;;5.50;99.90;;;;;;8378727;28;20569;-67
2021/12/29 09:21:27;;;;;;;13.03;8.07;;;5.70;99.90;;;;;;8375005;28;20273;-66
2021/12/29 09:25:29;;;;;;;16.00;9.80;;;5.80;99.90;;;;;;8417504;28;20218;-66
2021/12/29 09:29:33;;;;;;;14.37;8.37;;;5.70;99.90;;;;;;8385990;28;20316;-67
2021/12/29 09:33:35;;;;;;;14.37;8.63;;;5.70;99.90;;;;;;8379010;28;20185;-67
2021/12/29 09:37:35;;;;;;;14.53;8.73;;;5.80;99.90;;;;;;8383468;28;20184;-66
2021/12/29 09:41:37;;;;;;;17.63;9.37;;;5.80;99.90;;;;;;8397112;28;20180;-67
2021/12/29 09:45:39;;;;;;;20.30;12.07;;;5.80;99.90;;;;;;8385147;28;20351;-66
2021/12/29 09:49:40;;;;;;;13.60;8.30;;;5.80;99.90;;;;;;8384429;28;20209;-67
2021/12/29 09:53:42;;;;;;;15.50;8.57;;;5.90;99.90;;;;;;8380162;28;20185;-67
2021/12/29 09:57:45;;;;;;;12.17;8.23;;;6.00;99.90;;;;;;8372268;28;20192;-67
2021/12/29 10:01:46;;;;;;;16.50;7.00;;;6.20;99.90;;;;;;8371473;28;20190;-66
2021/12/29 10:05:50;;;;;;;11.40;7.27;;;6.40;99.90;;;;;;8369395;28;20209;-66
2021/12/29 10:09:51;;;;;;;9.53;6.40;;;6.40;99.90;;;;;;8420016;27;20282;-66
2021/12/29 10:13:54;;;;;;;11.23;8.63;;;6.20;99.90;;;;;;8401880;28;20185;-67
2021/12/29 10:18:24;;;;;;;12.67;8.80;;;6.20;99.90;;;;;;8379622;28;20177;-67
2021/12/29 10:22:25;;;;;;;12.83;7.57;;;6.20;99.90;;;;;;8366164;28;20598;-67
2021/12/29 10:26:29;;;;;;;10.37;6.60;;;6.20;99.90;;;;;;8366953;28;22313;-67
2021/12/29 10:30:31;;;;;;;10.90;6.57;;;6.20;99.90;;;;;;8417438;27;20191;-67
2021/12/29 10:34:32;;;;;;;21.43;9.67;;;6.20;99.90;;;;;;8392946;28;20190;-67
2021/12/29 10:38:33;;;;;;;9.50;5.80;;;6.30;99.90;;;;;;8380439;28;20553;-67
2021/12/29 10:42:34;;;;;;;16.50;7.83;;;6.40;99.90;;;;;;8381391;28;20197;-67
2021/12/29 10:46:35;;;;;;;11.13;6.77;;;6.50;99.90;;;;;;8382655;28;20216;-66
2021/12/29 10:50:35;;;;;;;15.33;10.20;;;6.60;99.90;;;;;;8390587;28;20188;-66
2021/12/29 10:54:36;;;;;;;12.23;6.90;;;6.70;99.90;;;;;;8385274;28;20180;-67
2021/12/29 10:58:37;;;;;;;12.90;7.40;;;6.70;99.90;;;;;;8397551;28;20203;-67
2021/12/29 11:02:38;;;;;;;20.03;11.23;;;6.70;99.90;;;;;;8391001;28;20192;-66
2021/12/29 11:06:46;;;;;;;14.43;8.70;;;6.70;99.90;;;;;;8392575;28;20211;-66
2021/12/29 11:10:47;;;;;;;14.17;8.03;;;6.60;99.90;;;;;;8426355;27;20197;-66
2021/12/29 11:14:53;;;;;;;18.73;10.00;;;6.60;99.90;;;;;;8396655;28;20181;-66
2021/12/29 11:18:55;;;;;;;12.93;8.43;;;6.70;99.90;;;;;;8401221;28;20195;-66
2021/12/29 11:23:17;;;;;;;11.20;7.37;;;6.80;99.90;;;;;;8384305;28;20208;-66
2021/12/29 11:27:18;;;;;;;16.92;12.82;;;6.90;99.90;;;;;;8385298;28;20434;-66
2021/12/29 11:31:19;;;;;;;15.03;9.60;;;7.00;99.90;;;;;;8387669;28;20200;-66
2021/12/29 11:35:24;;;;;;;18.83;9.93;;;7.00;99.90;;;;;;8394001;28;20223;-67
2021/12/29 11:39:25;;;;;;;11.17;6.50;;;7.00;99.90;;;;;;8385620;28;20237;-66
2021/12/29 11:43:26;;;;;;;13.13;9.43;;;7.10;99.90;;;;;;8418138;28;20188;-67
2021/12/29 11:47:27;;;;;;;8.77;5.87;;;7.10;99.90;;;;;;8377662;28;20186;-66
2021/12/29 11:51:36;;;;;;;9.43;5.60;;;7.10;99.90;;;;;;8389498;28;20182;-66
2021/12/29 11:56:08;;;;;;;10.03;5.77;;;7.00;99.90;;;;;;8402400;28;20216;-66
2021/12/29 12:00:19;;;;;;;11.67;5.80;;;7.00;99.90;;;;;;8381226;28;20189;-67
2021/12/29 12:04:20;;;;;;;10.77;6.90;;;6.70;99.90;;;;;;8393147;28;20193;-67
2021/12/29 12:08:24;;;;;;;12.07;6.83;;;6.50;99.90;;;;;;8391133;28;20208;-67
2021/12/29 12:12:41;;;;;;;13.37;7.07;;;6.50;99.90;;;;;;8384893;28;20211;-67
2021/12/29 12:17:05;;;;;;;10.00;5.53;;;6.50;99.90;;;;;;8388409;28;20177;-67
2021/12/29 12:21:06;;;;;;;12.57;7.10;;;6.60;99.90;;;;;;8388844;28;20200;-67
2021/12/29 12:25:08;;;;;;;11.57;6.50;;;6.90;99.90;;;;;;8389391;28;20328;-67
2021/12/29 12:29:14;;;;;;;10.17;5.60;;;7.00;99.90;;;;;;8393348;28;20182;-67
2021/12/29 12:33:20;;;;;;;8.20;6.03;;;7.20;99.90;;;;;;8378514;28;20208;-67
2021/12/29 12:37:30;;;;;;;10.73;7.97;;;7.40;99.90;;;;;;8381803;28;20196;-67
2021/12/29 12:41:38;;;;;;;16.30;12.03;;;7.50;99.90;;;;;;8382356;28;20190;-67
2021/12/29 12:45:47;;;;;;;10.33;7.07;;;7.40;99.90;;;;;;8378564;28;20257;-68
2021/12/29 12:49:53;;;;;;;10.27;6.67;;;7.60;99.90;;;;;;8411239;27;20211;-67
2021/12/29 12:53:54;;;;;;;9.73;6.40;;;7.70;99.90;;;;;;8379889;28;20196;-68
2021/12/29 12:58:10;;;;;;;12.10;7.20;;;7.80;99.90;;;;;;8376351;28;20189;-68
2021/12/29 13:02:14;;;;;;;8.70;6.00;;;7.80;99.90;;;;;;8376587;28;20181;-67
2021/12/29 13:06:23;;;;;;;11.33;6.40;;;7.70;99.90;;;;;;8407753;27;20221;-68
2021/12/29 13:10:27;;;;;;;7.90;5.70;;;7.60;99.90;;;;;;8413029;27;20204;-68
2021/12/29 13:14:28;;;;;;;9.30;6.03;;;7.50;99.90;;;;;;8415900;27;20249;-67
2021/12/29 13:18:29;;;;;;;9.40;6.00;;;7.40;99.90;;;;;;8405095;28;20208;-67
2021/12/29 13:22:33;;;;;;;8.80;5.30;;;7.20;99.90;;;;;;8415421;27;20303;-68
2021/12/29 13:26:38;;;;;;;10.20;5.70;;;7.00;99.90;;;;;;8382497;28;20224;-68
2021/12/29 13:30:45;;;;;;;10.50;6.00;;;6.90;99.90;;;;;;8378958;28;20182;-68
2021/12/29 13:34:45;;;;;;;10.07;5.50;;;6.80;99.90;;;;;;8376509;28;20189;-67
2021/12/29 13:38:48;;;;;;;10.27;6.37;;;6.80;99.90;;;;;;8378347;28;20269;-68
2021/12/29 13:42:49;;;;;;;11.37;6.63;;;6.80;99.90;;;;;;8374899;28;20216;-68
2021/12/29 13:46:49;;;;;;;10.00;6.70;;;6.80;99.90;;;;;;8372095;28;20224;-67
2021/12/29 13:51:02;;;;;;;11.27;6.77;;;6.80;99.90;;;;;;8383601;28;20219;-68
2021/12/29 13:55:03;;;;;;;10.87;7.03;;;6.70;99.90;;;;;;8371056;28;20181;-67
2021/12/29 13:59:07;;;;;;;11.60;7.13;;;6.70;99.90;;;;;;8411332;27;20196;-68
2021/12/29 14:03:10;;;;;;;13.70;8.37;;;6.70;99.90;;;;;;8369127;28;20279;-68
2021/12/29 14:07:13;;;;;;;13.30;8.57;;;6.60;99.90;;;;;;8406332;28;20593;-67
2021/12/29 14:11:14;;;;;;;16.63;8.67;;;6.50;99.90;;;;;;8372967;28;20258;-68
2021/12/29 14:15:20;;;;;;;14.17;7.23;;;6.50;99.90;;;;;;8363270;28;20271;-68
2021/12/29 14:19:26;;;;;;;11.30;7.37;;;6.50;99.90;;;;;;8377706;28;20201;-68
2021/12/29 14:23:28;;;;;;;21.40;11.83;;;6.40;99.90;;;;;;8383838;28;20210;-68
2021/12/29 14:27:31;;;;;;;23.60;15.07;;;6.30;99.90;;;;;;8379132;28;20216;-67
2021/12/29 14:31:46;;;;;;;16.93;9.87;;;6.20;99.90;;;;;;8380933;28;20253;-67
2021/12/29 14:35:52;;;;;;;22.00;12.10;;;6.10;99.90;;;;;;8409060;28;20287;-68
2021/12/29 14:39:53;;;;;;;20.83;12.03;;;6.00;99.90;;;;;;8376723;28;20196;-68
2021/12/29 14:44:04;;;;;;;22.73;11.60;;;6.00;99.90;;;;;;8377101;28;20184;-68
2021/12/29 14:48:10;;;;;;;26.03;12.50;;;5.90;99.90;;;;;;8385508;28;20192;-68
2021/12/29 14:52:15;;;;;;;18.93;10.03;;;5.90;99.90;;;;;;8384199;28;20200;-68
2021/12/29 14:56:19;;;;;;;17.63;11.83;;;5.80;99.90;;;;;;8382070;28;20194;-68
2021/12/29 15:00:25;;;;;;;14.33;10.73;;;5.80;99.90;;;;;;8382562;28;20194;-67
2021/12/29 15:04:27;;;;;;;18.40;10.60;;;5.80;99.90;;;;;;8383761;28;20212;-68
2021/12/29 15:08:29;;;;;;;17.13;9.53;;;5.70;99.90;;;;;;8386790;28;20233;-68
2021/12/29 15:12:33;;;;;;;19.13;10.87;;;5.60;99.90;;;;;;8394129;28;20201;-68
2021/12/29 15:16:34;;;;;;;14.87;9.97;;;5.70;99.90;;;;;;8450061;22;20247;-78
2021/12/29 15:20:38;;;;;;;13.73;8.93;;;5.70;99.90;;;;;;8420628;28;20181;-79
2021/12/29 15:24:39;;;;;;;15.67;9.67;;;5.70;99.90;;;;;;8419120;28;20209;-79
2021/12/29 15:28:40;;;;;;;17.30;10.50;;;5.60;99.90;;;;;;8421238;28;20192;-83
2021/12/29 15:32:41;;;;;;;16.20;9.50;;;5.60;99.90;;;;;;8416951;28;20204;-83
2021/12/29 15:36:43;;;;;;;15.70;9.23;;;5.60;99.90;;;;;;8416694;28;20173;-82
2021/12/29 15:40:44;;;;;;;19.57;11.10;;;5.50;99.90;;;;;;8415998;28;20177;-82
2021/12/29 15:44:45;;;;;;;21.67;12.90;;;5.50;99.90;;;;;;8422570;28;20205;-82
2021/12/29 15:48:47;;;;;;;25.77;14.47;;;5.50;99.90;;;;;;8413182;28;20188;-81
2021/12/29 15:52:53;;;;;;;27.47;13.77;;;5.50;99.90;;;;;;8429092;28;20185;-82
2021/12/29 15:56:55;;;;;;;19.23;10.50;;;5.50;99.90;;;;;;8425793;28;20342;-82
2021/12/29 16:00:56;;;;;;;17.07;9.67;;;5.50;99.90;;;;;;8421648;28;20186;-81
2021/12/29 16:04:57;;;;;;;19.17;11.57;;;5.50;99.90;;;;;;8428020;28;20210;-80
2021/12/29 16:08:58;;;;;;;21.30;11.80;;;5.50;99.90;;;;;;8417267;28;20183;-81
2021/12/29 16:13:02;;;;;;;25.00;13.60;;;5.40;99.90;;;;;;8450784;28;20191;-82
2021/12/29 16:17:03;;;;;;;23.97;12.03;;;5.40;99.90;;;;;;8454039;27;20253;-83
2021/12/29 16:21:04;;;;;;;24.23;11.30;;;5.40;99.90;;;;;;8441757;27;20219;-81
2021/12/29 16:25:07;;;;;;;19.03;9.57;;;5.40;99.90;;;;;;8450984;27;20231;-81
2021/12/29 16:29:08;;;;;;;31.43;13.87;;;5.40;99.90;;;;;;8446932;28;20460;-82
2021/12/29 16:33:09;;;;;;;18.63;10.40;;;5.30;99.90;;;;;;8454258;28;20180;-82
2021/12/29 16:37:10;;;;;;;20.77;11.50;;;5.30;99.90;;;;;;8454933;27;20191;-82
2021/12/29 16:41:11;;;;;;;20.27;11.37;;;5.30;99.90;;;;;;8444282;27;20184;-81
2021/12/29 16:45:12;;;;;;;19.27;11.73;;;5.30;99.90;;;;;;8450330;27;20211;-82
2021/12/29 16:49:13;;;;;;;17.70;12.47;;;5.30;99.90;;;;;;8454338;28;20183;-82
2021/12/29 16:53:16;;;;;;;24.63;14.80;;;5.30;99.90;;;;;;8454025;27;20199;-82
2021/12/29 16:57:17;;;;;;;23.37;13.80;;;5.30;99.90;;;;;;8477097;27;20180;-82
2021/12/29 17:01:18;;;;;;;18.63;11.37;;;5.30;99.90;;;;;;8446354;27;20214;-82
2021/12/29 17:05:19;;;;;;;17.10;13.03;;;5.30;99.90;;;;;;8449209;27;20211;-81
2021/12/29 17:09:20;;;;;;;20.60;12.57;;;5.20;99.90;;;;;;8452366;27;20207;-81
2021/12/29 17:13:22;;;;;;;20.03;13.23;;;5.20;99.90;;;;;;8455057;27;20274;-82
2021/12/29 17:17:23;;;;;;;21.60;17.47;;;5.20;99.90;;;;;;8449838;27;20204;-81
2021/12/29 17:21:24;;;;;;;21.20;14.40;;;5.20;99.90;;;;;;8452005;27;20204;-81
2021/12/29 17:25:27;;;;;;;32.97;23.03;;;5.20;99.90;;;;;;8445461;27;20261;-80
2021/12/29 17:29:28;;;;;;;26.40;12.50;;;5.30;99.90;;;;;;8447625;27;20181;-83
2021/12/29 17:33:32;;;;;;;22.50;12.90;;;5.30;99.90;;;;;;8447460;27;20279;-81
2021/12/29 17:37:35;;;;;;;29.17;12.80;;;5.40;99.90;;;;;;8448091;27;20180;-81
2021/12/29 17:41:37;;;;;;;21.47;11.97;;;5.40;99.90;;;;;;8447816;27;20286;-83
2021/12/29 17:45:38;;;;;;;41.73;18.87;;;5.50;99.90;;;;;;8432646;28;20211;-81
2021/12/29 17:49:39;;;;;;;24.27;14.27;;;5.50;99.90;;;;;;8452192;28;20200;-82
2021/12/29 17:53:44;;;;;;;21.67;14.50;;;5.60;99.90;;;;;;8453670;27;20185;-81
2021/12/29 17:57:45;;;;;;;19.03;12.13;;;5.60;99.90;;;;;;8448846;27;20189;-82
2021/12/29 18:01:47;;;;;;;19.13;12.33;;;5.60;99.90;;;;;;8453035;27;20267;-81
2021/12/29 18:05:48;;;;;;;17.77;10.80;;;5.60;99.90;;;;;;8448776;27;20206;-82
2021/12/29 18:09:49;;;;;;;18.70;10.50;;;5.70;99.90;;;;;;8448433;28;20292;-81
2021/12/29 18:13:50;;;;;;;18.40;10.50;;;5.70;99.90;;;;;;8445656;27;20187;-82
2021/12/29 18:17:51;;;;;;;14.60;9.60;;;5.70;99.90;;;;;;8445495;27;20224;-82
2021/12/29 18:21:52;;;;;;;15.20;9.63;;;5.70;99.90;;;;;;8451323;27;20183;-82
2021/12/29 18:25:53;;;;;;;26.90;18.20;;;5.70;99.90;;;;;;8444741;27;20221;-80
2021/12/29 18:29:54;;;;;;;24.97;20.13;;;5.60;99.90;;;;;;8447678;27;20269;-82
2021/12/29 18:33:55;;;;;;;22.50;16.00;;;5.60;99.90;;;;;;8426051;28;20195;-82
2021/12/29 18:37:57;;;;;;;27.50;16.87;;;5.50;99.90;;;;;;8451123;28;20175;-82
2021/12/29 18:41:58;;;;;;;58.00;22.10;;;5.50;99.90;;;;;;8452173;28;20180;-82
2021/12/29 18:45:59;;;;;;;19.80;12.80;;;5.50;99.90;;;;;;8452293;27;20207;-81
2021/12/29 18:50:02;;;;;;;16.00;10.20;;;5.50;99.90;;;;;;8446532;28;20198;-81
2021/12/29 18:54:03;;;;;;;14.77;9.83;;;5.60;99.90;;;;;;8445945;27;20208;-81
2021/12/29 18:58:06;;;;;;;18.67;11.80;;;5.60;99.90;;;;;;8444923;28;20271;-82
2021/12/29 19:02:09;;;;;;;17.60;12.73;;;5.60;99.90;;;;;;8444256;28;20225;-81
2021/12/29 19:06:10;;;;;;;25.20;15.17;;;5.70;99.90;;;;;;8432937;28;20229;-82
2021/12/29 19:10:12;;;;;;;35.10;18.33;;;5.70;99.90;;;;;;8465289;28;20206;-82
2021/12/29 19:14:13;;;;;;;36.50;17.27;;;5.70;99.90;;;;;;8456133;28;20647;-83
2021/12/29 19:18:15;;;;;;;41.20;18.57;;;5.70;99.90;;;;;;8432419;28;20318;-85
2021/12/29 19:22:18;;;;;;;40.57;20.83;;;5.60;99.90;;;;;;8441767;28;20192;-82
2021/12/29 19:26:19;;;;;;;29.97;16.90;;;5.60;99.90;;;;;;8461847;27;20221;-82
2021/12/29 19:30:20;;;;;;;30.03;18.87;;;5.60;99.90;;;;;;8462598;27;20198;-82
2021/12/29 19:34:29;;;;;;;33.87;20.27;;;5.60;99.90;;;;;;8439402;27;20199;-82
2021/12/29 19:38:32;;;;;;;39.00;20.33;;;5.60;99.90;;;;;;8449517;27;20222;-82
2021/12/29 19:42:33;;;;;;;32.67;16.80;;;5.60;99.90;;;;;;8457113;27;20296;-82
2021/12/29 19:46:36;;;;;;;33.90;16.80;;;5.60;99.90;;;;;;8447320;27;20227;-81
2021/12/29 19:50:42;;;;;;;38.23;18.43;;;5.60;99.90;;;;;;8459396;28;20186;-82
2021/12/29 19:54:45;;;;;;;31.47;16.57;;;5.60;99.90;;;;;;8462798;27;20196;-82
2021/12/29 19:58:47;;;;;;;20.47;13.33;;;5.60;99.90;;;;;;8462742;27;20184;-81
2021/12/29 20:02:48;;;;;;;22.90;15.87;;;5.60;99.90;;;;;;8458673;27;20233;-82
2021/12/29 20:06:50;;;;;;;22.17;16.77;;;5.60;99.90;;;;;;8461047;27;20277;-82
2021/12/29 20:10:56;;;;;;;25.37;14.90;;;5.60;99.90;;;;;;8428440;28;20212;-82
2021/12/29 20:14:57;;;;;;;24.70;14.20;;;5.60;99.90;;;;;;8451864;27;20211;-82
2021/12/29 20:18:58;;;;;;;14.23;10.57;;;5.60;99.90;;;;;;8434641;27;20211;-82
2021/12/29 20:23:05;;;;;;;22.10;15.13;;;5.70;99.90;;;;;;8458040;27;20187;-81
2021/12/29 20:27:06;;;;;;;13.97;8.17;;;5.70;99.90;;;;;;8444422;27;20212;-82
2021/12/29 20:31:11;;;;;;;12.70;8.47;;;5.70;99.90;;;;;;8428003;27;20188;-80
2021/12/29 20:35:14;;;;;;;12.93;9.53;;;5.70;99.90;;;;;;8449598;28;20198;-80
2021/12/29 20:39:16;;;;;;;12.37;8.63;;;5.70;99.90;;;;;;8456186;27;20195;-81
2021/12/29 20:43:17;;;;;;;12.90;8.47;;;5.70;99.90;;;;;;8456642;27;20188;-82
2021/12/29 20:47:18;;;;;;;12.90;7.90;;;5.60;99.90;;;;;;8454979;27;20314;-83
2021/12/29 20:51:22;;;;;;;12.80;8.73;;;5.70;99.90;;;;;;8437362;28;20188;-82
2021/12/29 20:55:24;;;;;;;12.43;8.57;;;5.70;99.90;;;;;;8453794;27;20195;-82
2021/12/29 20:59:25;;;;;;;13.77;8.60;;;5.70;99.90;;;;;;8455318;27;20187;-82